Paauhau, Hawaii
Current Conditions -  °F | °C
As of 3:56 PM on Thursday 18 Dec 2014 (Local Time) from PHSF Reporting Station
Clear Clear  
Wind Chill: 69°   Ceiling: Unl
Heat Index: 69°   Visibility: 10mi
Dew Point: 19°   Wind: 22mph
Humidity: 14%   Direction: 160°SSE
Pressure: 30.32"   Gusts: 33mph
Location:  20.08°N, 155.44°W
Report Text: PHSF 190156Z AUTO 16019G29KT 10SM CLR 21/M07 A3032 RMK AO2 PK WND 16028/06 SLP158 T02081075 $
Loading
Personal Weather Stations






























Interactive Weather Map New forecast layout! Learn more

10-Day Weather Forecast

Advertisements
Track Severe Weather on mobile